createdAt,value
2019-06-01T00:00:19.320Z,88.40
2019-06-01T00:02:55.814Z,86.10
2019-06-01T00:05:21.300Z,85.20
2019-06-01T00:07:51.456Z,80.00
2019-06-01T00:10:21.660Z,81.40
2019-06-01T00:12:51.857Z,83.20
2019-06-01T00:15:22.040Z,85.10
2019-06-01T00:17:52.172Z,86.60
2019-06-01T00:20:22.529Z,88.00
2019-06-01T00:22:52.695Z,88.40
2019-06-01T00:25:22.846Z,89.90
2019-06-01T00:27:53.059Z,90.70
2019-06-01T00:30:26.899Z,90.40
2019-06-01T00:32:56.195Z,89.00
2019-06-01T00:35:26.373Z,85.80
2019-06-01T00:37:56.608Z,86.20
2019-06-01T00:40:26.788Z,85.60
2019-06-01T00:42:56.949Z,85.20
2019-06-01T00:45:27.089Z,85.70
2019-06-01T00:47:57.222Z,86.50
2019-06-01T00:50:27.653Z,87.10
2019-06-01T00:52:57.772Z,86.30
2019-06-01T00:55:27.883Z,84.20
2019-06-01T00:57:58.010Z,82.40
2019-06-01T01:00:42.882Z,86.20
2019-06-01T01:03:00.512Z,86.40
2019-06-01T01:05:30.964Z,85.50
2019-06-01T01:08:01.145Z,86.20
2019-06-01T01:10:31.436Z,86.90
2019-06-01T01:13:14.740Z,88.60
2019-06-01T01:15:45.248Z,88.40
2019-06-01T01:18:15.383Z,87.60
2019-06-01T01:20:45.950Z,87.60
2019-06-01T01:23:19.163Z,90.00
2019-06-01T01:25:52.594Z,90.50
2019-06-01T01:28:23.996Z,90.50
2019-06-01T01:31:06.806Z,90.60
2019-06-01T01:33:26.308Z,90.70
2019-06-01T01:35:57.753Z,91.00
2019-06-01T01:38:28.037Z,91.20
2019-06-01T01:40:59.366Z,91.70
2019-06-01T01:43:29.750Z,88.90
2019-06-01T01:46:00.059Z,85.40
2019-06-01T01:48:30.190Z,87.00
2019-06-01T01:51:00.410Z,87.00
2019-06-01T01:53:30.578Z,88.40
2019-06-01T01:56:01.222Z,87.60
2019-06-01T01:58:31.397Z,89.80
2019-06-01T02:01:16.994Z,89.70
2019-06-01T02:03:33.617Z,89.70
2019-06-01T02:06:03.764Z,89.60
2019-06-01T02:08:33.925Z,89.50
2019-06-01T02:11:04.251Z,90.60
2019-06-01T02:13:34.404Z,89.80
2019-06-01T02:16:04.794Z,85.10
2019-06-01T02:18:34.956Z,85.10
2019-06-01T02:21:05.229Z,86.30
2019-06-01T02:23:35.429Z,87.10
2019-06-01T02:26:05.598Z,86.70
2019-06-01T02:28:35.786Z,88.00
2019-06-01T02:31:05.979Z,89.80
2019-06-01T02:33:36.148Z,90.30
2019-06-01T02:36:06.342Z,90.70
2019-06-01T02:38:36.516Z,90.60
2019-06-01T02:41:07.141Z,90.50
2019-06-01T02:43:37.741Z,89.50
2019-06-01T02:46:07.878Z,87.60
2019-06-01T02:48:38.087Z,88.10
2019-06-01T02:51:08.416Z,89.50
2019-06-01T02:53:38.626Z,89.60
2019-06-01T02:56:08.824Z,89.50
2019-06-01T02:58:39.091Z,88.60
2019-06-01T03:01:35.470Z,87.60
2019-06-01T03:04:08.532Z,88.70
2019-06-01T03:06:42.722Z,86.00
2019-06-01T03:09:17.379Z,84.60
2019-06-01T03:11:49.376Z,83.70
2019-06-01T03:14:22.742Z,85.20
2019-06-01T03:16:53.811Z,84.80
2019-06-01T03:19:26.236Z,83.20
2019-06-01T03:22:03.155Z,83.00
2019-06-01T03:24:37.026Z,80.10
2019-06-01T03:27:08.139Z,80.40
2019-06-01T03:29:42.460Z,81.40
2019-06-01T03:32:29.030Z,82.20
2019-06-01T03:34:45.347Z,82.00
2019-06-01T03:37:15.469Z,82.30
2019-06-01T03:39:45.848Z,81.60
2019-06-01T03:42:16.434Z,83.80
2019-06-01T03:44:46.603Z,85.10
2019-06-01T03:47:17.262Z,86.20
2019-06-01T03:49:47.524Z,88.30
2019-06-01T03:52:17.700Z,89.20
2019-06-01T03:54:48.695Z,90.10
2019-06-01T03:57:19.080Z,89.30
2019-06-01T03:59:49.223Z,87.70
2019-06-01T04:02:32.468Z,85.20
2019-06-01T04:04:51.415Z,81.00
2019-06-01T04:07:21.540Z,79.50
2019-06-01T04:09:51.634Z,77.60
2019-06-01T04:12:22.506Z,76.40
2019-06-01T04:14:53.076Z,76.00
2019-06-01T04:17:23.290Z,75.60
2019-06-01T04:19:53.760Z,75.00
2019-06-01T04:22:23.919Z,74.50
2019-06-01T04:24:54.988Z,74.90
2019-06-01T04:27:25.251Z,74.80
2019-06-01T04:29:55.352Z,75.60
2019-06-01T04:32:25.703Z,74.50
2019-06-01T04:34:55.876Z,72.60
2019-06-01T04:37:26.204Z,70.90
2019-06-01T04:39:56.491Z,72.50
2019-06-01T04:42:26.743Z,71.80
2019-06-01T04:44:56.984Z,71.10
2019-06-01T04:47:27.386Z,70.00
2019-06-01T04:49:57.589Z,68.90
2019-06-01T04:52:27.916Z,69.40
2019-06-01T04:54:58.973Z,72.40
2019-06-01T04:57:29.430Z,70.70
2019-06-01T05:00:05.140Z,70.50
2019-06-01T05:02:34.736Z,73.00
2019-06-01T05:05:05.114Z,72.80
2019-06-01T05:07:35.747Z,73.20
2019-06-01T05:10:07.535Z,71.70
2019-06-01T05:12:38.101Z,71.80
2019-06-01T05:15:09.984Z,70.50
2019-06-01T05:17:40.725Z,72.00
2019-06-01T05:20:12.440Z,72.40
2019-06-01T05:22:42.701Z,71.00
2019-06-01T05:25:13.613Z,71.70
2019-06-01T05:27:44.972Z,68.70
2019-06-01T05:30:15.693Z,69.50
2019-06-01T05:32:46.563Z,67.50
2019-06-01T05:35:18.008Z,67.60
2019-06-01T05:37:48.196Z,67.70
2019-06-01T05:40:19.770Z,66.60
2019-06-01T05:42:50.114Z,64.50
2019-06-01T05:45:46.334Z,66.40
2019-06-01T05:48:17.313Z,65.00
2019-06-01T05:50:44.980Z,65.40
2019-06-01T05:53:15.205Z,64.40
2019-06-01T05:55:45.375Z,64.90
2019-06-01T05:58:15.528Z,63.10
2019-06-01T06:00:45.979Z,60.60
2019-06-01T06:03:20.400Z,63.10
2019-06-01T06:05:47.864Z,64.20
2019-06-01T06:08:18.070Z,64.90
2019-06-01T06:10:48.439Z,64.20
2019-06-01T06:13:19.394Z,64.30
2019-06-01T06:15:49.737Z,62.50
2019-06-01T06:18:19.878Z,60.70
2019-06-01T06:20:50.204Z,59.70
2019-06-01T06:23:20.573Z,58.60
2019-06-01T06:25:50.964Z,57.80
2019-06-01T06:28:21.013Z,57.30
2019-06-01T06:30:51.358Z,57.70
2019-06-01T06:33:21.509Z,55.40
2019-06-01T06:35:51.667Z,55.40
2019-06-01T06:38:30.691Z,54.60
2019-06-01T06:41:18.247Z,53.90
2019-06-01T06:43:49.260Z,53.00
2019-06-01T06:46:26.933Z,52.80
2019-06-01T06:48:57.075Z,51.70
2019-06-01T06:51:31.496Z,51.00
2019-06-01T06:54:01.607Z,49.90
2019-06-01T06:56:32.025Z,48.70
2019-06-01T06:59:02.277Z,46.20
2019-06-01T07:01:32.385Z,46.90
2019-06-01T07:04:12.384Z,45.80
2019-06-01T07:06:34.429Z,43.40
2019-06-01T07:09:09.065Z,42.90
2019-06-01T07:11:39.592Z,42.40
2019-06-01T07:14:10.293Z,42.00
2019-06-01T07:16:40.550Z,41.80
2019-06-01T07:19:10.729Z,43.10
2019-06-01T07:21:40.889Z,42.70
2019-06-01T07:24:11.040Z,40.10
2019-06-01T07:26:41.264Z,39.70
2019-06-01T07:29:11.464Z,37.50
2019-06-01T07:31:41.674Z,38.70
2019-06-01T07:34:29.184Z,36.40
2019-06-01T07:36:43.774Z,34.90
2019-06-01T07:39:14.035Z,36.50
2019-06-01T07:41:44.435Z,37.90
2019-06-01T07:44:14.628Z,35.40
2019-06-01T07:46:45.270Z,33.40
2019-06-01T07:49:17.590Z,29.60
2019-06-01T07:51:47.554Z,30.60
2019-06-01T07:54:17.923Z,30.10
2019-06-01T07:56:48.154Z,28.30
2019-06-01T07:59:32.509Z,29.00
2019-06-01T08:02:03.016Z,30.10
2019-06-01T08:04:51.839Z,28.80
2019-06-01T08:07:06.967Z,28.70
2019-06-01T08:09:37.200Z,27.00
2019-06-01T08:12:07.399Z,26.60
2019-06-01T08:14:38.077Z,24.80
2019-06-01T08:17:11.787Z,24.70
2019-06-01T08:19:41.928Z,26.70
2019-06-01T08:22:12.591Z,25.60
2019-06-01T08:24:42.935Z,24.60
2019-06-01T08:27:16.169Z,24.90
2019-06-01T08:29:46.409Z,25.30
2019-06-01T08:32:17.910Z,24.80
2019-06-01T08:34:48.111Z,21.70
2019-06-01T08:37:18.368Z,23.00
2019-06-01T08:39:48.728Z,23.50
2019-06-01T08:42:19.105Z,23.60
2019-06-01T08:44:49.392Z,21.80
2019-06-01T08:47:20.780Z,20.90
2019-06-01T08:49:51.036Z,20.30
2019-06-01T08:52:21.159Z,20.10
2019-06-01T08:54:51.380Z,20.10
2019-06-01T08:57:21.505Z,20.50
2019-06-01T08:59:51.927Z,20.10
2019-06-01T09:02:22.383Z,22.30
2019-06-01T09:04:52.683Z,21.20
2019-06-01T09:07:22.984Z,20.30
2019-06-01T09:09:54.324Z,19.70
2019-06-01T09:12:25.117Z,18.60
2019-06-01T09:14:55.445Z,19.30
2019-06-01T09:17:29.420Z,18.00
2019-06-01T09:19:59.889Z,18.30
2019-06-01T09:22:31.533Z,18.20
2019-06-01T09:25:02.255Z,18.60
2019-06-01T09:27:33.937Z,18.70
2019-06-01T09:30:05.124Z,17.60
2019-06-01T09:32:37.199Z,16.70
2019-06-01T09:35:11.210Z,17.10
2019-06-01T09:37:45.652Z,17.10
2019-06-01T09:40:16.124Z,18.00
2019-06-01T09:42:46.580Z,18.80
2019-06-01T09:45:18.760Z,17.90
2019-06-01T09:47:49.105Z,17.00
2019-06-01T09:50:19.648Z,17.60
2019-06-01T09:52:49.996Z,16.80
2019-06-01T09:55:20.244Z,17.50
2019-06-01T09:57:50.588Z,17.10
2019-06-01T10:00:22.223Z,16.30
2019-06-01T10:02:52.573Z,16.20
2019-06-01T10:05:22.786Z,17.20
2019-06-01T10:07:52.934Z,16.30
2019-06-01T10:10:23.106Z,14.50
2019-06-01T10:12:53.439Z,15.00
2019-06-01T10:15:24.624Z,16.20
2019-06-01T10:17:54.823Z,17.20
2019-06-01T10:20:25.066Z,15.00
2019-06-01T10:22:55.402Z,14.60
2019-06-01T10:25:25.622Z,13.80
2019-06-01T10:27:58.395Z,13.00
2019-06-01T10:30:28.531Z,12.30
2019-06-01T10:32:58.902Z,13.30
2019-06-01T10:35:29.028Z,13.30
2019-06-01T10:37:59.196Z,13.00
2019-06-01T10:40:33.519Z,13.30
2019-06-01T10:43:03.681Z,13.20
2019-06-01T10:45:33.792Z,12.80
2019-06-01T10:48:03.903Z,13.10
2019-06-01T10:50:34.841Z,13.50
2019-06-01T10:53:05.401Z,12.00
2019-06-01T10:55:36.342Z,12.40
2019-06-01T10:58:07.709Z,12.00
2019-06-01T11:00:45.483Z,11.30
2019-06-01T11:03:09.971Z,12.40
2019-06-01T11:05:40.870Z,12.20
2019-06-01T11:08:11.255Z,11.50
2019-06-01T11:10:41.576Z,11.90
2019-06-01T11:13:11.905Z,9.60
2019-06-01T11:15:43.276Z,12.70
2019-06-01T11:18:13.624Z,12.20
2019-06-01T11:20:44.250Z,11.00
2019-06-01T11:23:14.499Z,11.00
2019-06-01T11:25:44.908Z,13.00
2019-06-01T11:28:15.184Z,12.80
2019-06-01T11:30:45.392Z,10.50
2019-06-01T11:33:15.750Z,10.90
2019-06-01T11:35:45.966Z,10.10
2019-06-01T11:38:16.291Z,10.90
2019-06-01T11:40:46.654Z,10.40
2019-06-01T11:43:17.131Z,12.10
2019-06-01T11:45:47.212Z,10.80
2019-06-01T11:48:17.324Z,11.30
2019-06-01T11:50:47.457Z,10.10
2019-06-01T11:53:17.560Z,9.70
2019-06-01T11:55:47.620Z,11.00
2019-06-01T11:58:17.718Z,10.00
2019-06-01T12:00:47.809Z,10.90
2019-06-01T12:03:17.995Z,10.80
2019-06-01T12:05:48.044Z,10.20
2019-06-01T12:08:18.167Z,9.20
2019-06-01T12:10:48.268Z,9.00
2019-06-01T12:13:18.470Z,8.80
2019-06-01T12:15:48.560Z,6.60
2019-06-01T12:18:18.673Z,6.40
2019-06-01T12:20:48.763Z,7.80
2019-06-01T12:23:18.924Z,7.40
2019-06-01T12:25:48.990Z,7.40
2019-06-01T12:28:19.089Z,7.70
2019-06-01T12:30:49.194Z,8.00
2019-06-01T12:33:19.340Z,7.80
2019-06-01T12:35:49.392Z,6.70
2019-06-01T12:38:19.486Z,4.20
2019-06-01T12:40:49.581Z,5.40
2019-06-01T12:43:19.666Z,7.70
2019-06-01T12:46:05.451Z,7.60
2019-06-01T12:48:21.550Z,8.30
2019-06-01T12:50:53.341Z,8.50
2019-06-01T12:53:25.172Z,8.90
2019-06-01T12:55:55.273Z,8.00
2019-06-01T12:58:26.987Z,8.40
2019-06-01T13:00:57.223Z,7.60
2019-06-01T13:03:28.747Z,9.10
2019-06-01T13:05:58.887Z,8.80
2019-06-01T13:08:29.035Z,7.20
2019-06-01T13:10:59.130Z,8.00
2019-06-01T13:13:29.196Z,7.40
2019-06-01T13:15:59.347Z,6.50
2019-06-01T13:18:29.423Z,8.00
2019-06-01T13:20:59.658Z,7.20
2019-06-01T13:23:29.726Z,7.60
2019-06-01T13:25:59.840Z,7.30
2019-06-01T13:28:38.008Z,6.30
2019-06-01T13:31:01.684Z,4.80
2019-06-01T13:33:31.787Z,3.00
2019-06-01T13:36:01.856Z,1.00
2019-06-01T13:38:31.950Z,1.00
2019-06-01T13:41:02.081Z,1.00
2019-06-01T13:43:32.174Z,1.00
2019-06-01T13:46:02.261Z,1.00
2019-06-01T13:48:32.357Z,1.00
2019-06-01T13:51:02.432Z,1.00
2019-06-01T13:53:32.544Z,1.00
2019-06-01T13:56:02.644Z,1.00
2019-06-01T13:58:32.767Z,1.00
2019-06-01T14:01:02.843Z,1.00
2019-06-01T14:03:32.941Z,1.00
2019-06-01T14:06:03.009Z,1.00
2019-06-01T14:08:33.097Z,1.00
2019-06-01T14:11:03.199Z,1.00
2019-06-01T14:13:33.358Z,1.00
2019-06-01T14:16:03.623Z,1.00
2019-06-01T14:18:33.747Z,1.00
2019-06-01T14:21:03.816Z,1.00
2019-06-01T14:23:33.951Z,1.00
2019-06-01T14:26:04.214Z,1.00
2019-06-01T14:28:34.335Z,1.00
2019-06-01T14:31:04.401Z,1.00
2019-06-01T14:33:34.411Z,1.00
2019-06-01T14:36:06.743Z,1.00
2019-06-01T14:38:46.521Z,1.00
2019-06-01T14:41:08.589Z,1.00
2019-06-01T14:43:38.679Z,1.00
2019-06-01T14:46:08.765Z,1.00
2019-06-01T14:48:38.915Z,1.00
2019-06-01T14:51:08.985Z,1.00
2019-06-01T14:53:39.091Z,1.00
2019-06-01T14:56:09.233Z,1.00
2019-06-01T14:58:39.355Z,1.00
2019-06-01T15:01:09.576Z,1.00
2019-06-01T15:03:39.652Z,1.00
2019-06-01T15:06:09.750Z,1.00
2019-06-01T15:08:39.832Z,1.00
2019-06-01T15:11:10.024Z,1.00
2019-06-01T15:13:40.067Z,1.00
2019-06-01T15:16:10.160Z,1.00
2019-06-01T15:18:40.237Z,1.00
2019-06-01T15:21:10.362Z,1.00
2019-06-01T15:23:40.821Z,1.00
2019-06-01T15:26:10.952Z,1.00
2019-06-01T15:28:41.014Z,1.00
2019-06-01T15:31:11.209Z,1.00
2019-06-01T15:33:41.312Z,1.00
2019-06-01T15:36:11.422Z,1.00
2019-06-01T15:38:41.481Z,1.00
2019-06-01T15:41:11.569Z,1.00
2019-06-01T15:43:41.653Z,1.00
2019-06-01T15:46:11.760Z,1.00
2019-06-01T15:48:41.844Z,1.00
2019-06-01T15:51:11.922Z,1.00
2019-06-01T15:53:44.649Z,1.00
2019-06-01T15:56:14.748Z,1.00
2019-06-01T15:58:52.788Z,1.00
2019-06-01T16:01:16.631Z,1.00
2019-06-01T16:03:46.699Z,1.00
2019-06-01T16:06:16.783Z,1.00
2019-06-01T16:08:46.853Z,1.00
2019-06-01T16:11:17.221Z,1.00
2019-06-01T16:13:47.354Z,1.00
2019-06-01T16:16:17.627Z,1.00
2019-06-01T16:18:47.841Z,1.00
2019-06-01T16:21:18.103Z,1.00
2019-06-01T16:23:50.310Z,1.00
2019-06-01T16:26:19.960Z,1.00
2019-06-01T16:28:50.005Z,1.00
2019-06-01T16:31:20.100Z,1.00
2019-06-01T16:33:50.100Z,1.00
2019-06-01T16:36:20.200Z,1.00
2019-06-01T16:38:50.272Z,1.00
2019-06-01T16:41:20.487Z,1.00
2019-06-01T16:43:55.478Z,1.00
2019-06-01T16:46:25.644Z,1.00
2019-06-01T16:48:55.741Z,1.00
2019-06-01T16:51:26.038Z,1.00
2019-06-01T16:53:56.107Z,1.00
2019-06-01T16:56:27.109Z,1.00
2019-06-01T16:58:58.172Z,1.00
2019-06-01T17:03:58.594Z,1.00
2019-06-01T17:06:28.773Z,1.00
2019-06-01T17:09:00.796Z,1.00
2019-06-01T17:11:30.951Z,1.00
2019-06-01T17:14:01.019Z,1.00
2019-06-01T17:16:31.118Z,1.00
2019-06-01T17:19:01.284Z,1.00
2019-06-01T17:21:31.433Z,1.00
2019-06-01T17:24:01.642Z,1.00
2019-06-01T17:26:31.782Z,1.00
2019-06-01T17:29:02.193Z,1.00
2019-06-01T17:31:32.500Z,1.00
2019-06-01T17:34:02.670Z,1.00
2019-06-01T17:36:32.813Z,1.00
2019-06-01T17:39:03.919Z,1.00
2019-06-01T17:41:36.541Z,1.00
2019-06-01T17:44:06.864Z,1.00
2019-06-01T17:46:52.401Z,1.00
2019-06-01T17:49:09.152Z,1.00
2019-06-01T17:51:41.521Z,1.00
2019-06-01T17:54:11.921Z,1.00
2019-06-01T17:56:48.105Z,1.00
2019-06-01T17:59:18.467Z,1.00
2019-06-01T18:01:49.725Z,1.30
2019-06-01T18:04:20.056Z,1.00
2019-06-01T18:06:50.357Z,1.90
2019-06-01T18:09:21.566Z,2.50
2019-06-01T18:11:51.831Z,2.30
2019-06-01T18:14:23.638Z,2.80
2019-06-01T18:16:55.814Z,2.60
2019-06-01T18:19:26.372Z,2.80
2019-06-01T18:21:56.880Z,4.00
2019-06-01T18:24:28.259Z,7.00
2019-06-01T18:26:58.574Z,8.60
2019-06-01T18:29:28.850Z,11.60
2019-06-01T18:31:59.031Z,12.70
2019-06-01T18:34:31.009Z,14.80
2019-06-01T18:37:01.353Z,16.60
2019-06-01T18:39:48.088Z,18.90
2019-06-01T18:42:22.544Z,21.20
2019-06-01T18:44:53.889Z,21.70
2019-06-01T18:47:32.189Z,22.70
2019-06-01T18:49:58.207Z,23.40
2019-06-01T18:52:31.404Z,24.70
2019-06-01T18:55:01.888Z,25.00
2019-06-01T18:57:34.872Z,27.10
2019-06-01T19:00:10.152Z,27.40
2019-06-01T19:02:44.734Z,28.30
2019-06-01T19:05:20.050Z,30.20
2019-06-01T19:07:53.870Z,31.90
2019-06-01T19:10:24.860Z,33.60
2019-06-01T19:12:55.436Z,34.30
2019-06-01T19:15:28.858Z,35.30
2019-06-01T19:18:00.320Z,36.10
2019-06-01T19:20:35.122Z,35.70
2019-06-01T19:23:06.607Z,36.20
2019-06-01T19:25:37.651Z,35.90
2019-06-01T19:28:08.809Z,35.70
2019-06-01T19:30:44.318Z,35.80
2019-06-01T19:33:17.508Z,37.90
2019-06-01T19:35:48.873Z,39.60
2019-06-01T19:38:21.373Z,38.40
2019-06-01T19:40:56.198Z,40.00
2019-06-01T19:43:29.429Z,38.30
2019-06-01T19:46:00.914Z,38.70
2019-06-01T19:48:33.325Z,40.60
2019-06-01T19:51:06.458Z,42.20
2019-06-01T19:53:39.406Z,42.60
2019-06-01T19:56:10.813Z,43.50
2019-06-01T19:58:42.222Z,44.40
2019-06-01T20:01:16.311Z,43.20
2019-06-01T20:03:49.854Z,44.00
2019-06-01T20:06:21.593Z,43.90
2019-06-01T20:08:51.784Z,41.70
2019-06-01T20:11:41.698Z,42.20
2019-06-01T20:14:14.306Z,41.40
2019-06-01T20:20:51.821Z,41.70
2019-06-01T20:23:23.932Z,43.50
2019-06-01T20:25:56.108Z,43.60
2019-06-01T20:28:27.107Z,42.70
2019-06-01T20:30:57.245Z,43.80
2019-06-01T20:33:27.419Z,44.50
2019-06-01T20:35:57.663Z,43.80
2019-06-01T20:38:27.974Z,43.00
2019-06-01T20:40:58.176Z,41.40
2019-06-01T20:43:28.452Z,42.30
2019-06-01T20:46:00.810Z,41.60
2019-06-01T20:48:31.014Z,43.10
2019-06-01T20:51:01.697Z,45.30
2019-06-01T20:53:31.893Z,44.20
2019-06-01T20:56:02.118Z,43.90
2019-06-01T20:58:32.395Z,45.20
2019-06-01T21:01:02.655Z,48.10
2019-06-01T21:03:33.422Z,48.80
2019-06-01T21:06:03.665Z,49.30
2019-06-01T21:08:33.858Z,48.40
2019-06-01T21:11:05.219Z,47.70
2019-06-01T21:13:35.414Z,47.40
2019-06-01T21:16:05.659Z,47.00
2019-06-01T21:18:35.779Z,48.00
2019-06-01T21:21:07.128Z,47.10
2019-06-01T21:23:37.278Z,47.80
2019-06-01T21:26:07.404Z,47.50
2019-06-01T21:28:37.635Z,49.60
2019-06-01T21:31:08.203Z,51.50
2019-06-01T21:33:40.370Z,50.90
2019-06-01T21:36:10.577Z,51.70
2019-06-01T21:38:40.795Z,51.80
2019-06-01T21:41:11.338Z,53.20
2019-06-01T21:43:42.136Z,53.40
2019-06-01T21:46:12.341Z,54.30
2019-06-01T21:48:45.053Z,54.70
2019-06-01T21:51:15.717Z,56.50
2019-06-01T21:53:46.128Z,55.60
2019-06-01T21:56:18.360Z,56.50
2019-06-01T21:58:48.207Z,55.40
2019-06-01T22:01:18.970Z,55.30
2019-06-01T22:03:49.684Z,54.10
2019-06-01T22:06:21.217Z,54.00
2019-06-01T22:08:53.111Z,55.40
2019-06-01T22:11:23.605Z,54.90
2019-06-01T22:13:56.040Z,55.80
2019-06-01T22:16:26.246Z,56.20
2019-06-01T22:18:56.806Z,57.20
2019-06-01T22:21:27.931Z,56.60
2019-06-01T22:23:58.715Z,57.00
2019-06-01T22:26:29.004Z,57.40
2019-06-01T22:29:00.035Z,57.50
2019-06-01T22:31:30.227Z,57.40
2019-06-01T22:34:00.392Z,57.30
2019-06-01T22:36:31.677Z,58.50
2019-06-01T22:39:05.119Z,58.10
2019-06-01T22:41:35.302Z,57.50
2019-06-01T22:44:06.072Z,57.50
2019-06-01T22:46:36.306Z,58.60
2019-06-01T22:49:06.692Z,58.50
2019-06-01T22:51:37.081Z,59.70
2019-06-01T22:54:07.237Z,62.20
2019-06-01T22:56:37.422Z,62.80
2019-06-01T22:59:07.609Z,62.70
2019-06-01T23:01:37.761Z,62.80
2019-06-01T23:04:07.999Z,62.10
2019-06-01T23:06:38.183Z,63.50
2019-06-01T23:09:09.090Z,65.70
2019-06-01T23:11:39.302Z,66.70
2019-06-01T23:14:11.928Z,67.10
2019-06-01T23:16:42.165Z,67.50
2019-06-01T23:19:13.409Z,69.70
2019-06-01T23:21:45.715Z,69.50
2019-06-01T23:24:15.867Z,69.80
2019-06-01T23:26:46.057Z,68.90
2019-06-01T23:29:16.170Z,68.00
2019-06-01T23:31:47.523Z,67.30
2019-06-01T23:34:17.687Z,68.00
2019-06-01T23:36:47.842Z,66.80
2019-06-01T23:39:19.115Z,66.30
2019-06-01T23:41:49.207Z,67.10
2019-06-01T23:44:19.360Z,67.50
2019-06-01T23:46:49.619Z,67.90
2019-06-01T23:49:19.737Z,68.60
2019-06-01T23:52:15.467Z,70.50
2019-06-01T23:54:44.150Z,71.70
2019-06-01T23:57:14.316Z,73.40
2019-06-01T23:59:44.536Z,73.50
